Time;durP1;ratioP1;P1;durP2;ratioP2;P2;SDS_P1;SDS_P2;PMS_P1;PMS_P2;Temp;Humidity;BMP_temperature;BMP_pressure;BME280_temperature;BME280_humidity;BME280_pressure;Samples;Min_cycle;Max_cycle;Signal;HPM_P1;HPM_P2
2022/04/11 00:02:18;;;;;;;9.88;9.07;;;4.70;74.60;;;;;;5073319;28;20203;-55
2022/04/11 00:04:45;;;;;;;10.88;10.00;;;4.80;74.60;;;;;;5073168;28;20222;-56
2022/04/11 00:07:12;;;;;;;10.55;9.73;;;4.90;74.40;;;;;;5073169;28;20311;-55
2022/04/11 00:09:42;;;;;;;10.95;9.85;;;4.90;74.30;;;;;;5073134;28;20287;-55
2022/04/11 00:12:10;;;;;;;10.75;9.82;;;5.00;74.10;;;;;;5072736;28;20201;-55
2022/04/11 00:14:37;;;;;;;10.15;9.30;;;5.10;74.00;;;;;;5072564;28;20200;-56
2022/04/11 00:17:05;;;;;;;10.50;9.52;;;5.20;73.80;;;;;;5073061;28;20208;-56
2022/04/11 00:19:31;;;;;;;10.07;9.27;;;5.10;72.90;;;;;;5072871;28;20200;-56
2022/04/11 00:21:58;;;;;;;11.40;10.50;;;5.00;73.20;;;;;;5073081;28;20732;-56
2022/04/11 00:24:25;;;;;;;11.40;10.40;;;4.90;73.60;;;;;;5072872;28;20236;-56
2022/04/11 00:26:53;;;;;;;11.02;10.20;;;4.80;74.00;;;;;;5073023;28;20228;-56
2022/04/11 00:29:20;;;;;;;12.10;11.05;;;4.70;74.40;;;;;;5071587;28;20243;-56
2022/04/11 00:31:47;;;;;;;11.88;10.70;;;4.60;74.60;;;;;;5072902;28;20571;-55
2022/04/11 00:34:14;;;;;;;11.40;10.40;;;4.50;75.30;;;;;;5072882;28;20620;-55
2022/04/11 00:36:41;;;;;;;12.75;11.52;;;4.30;76.00;;;;;;5073011;28;20291;-55
2022/04/11 00:39:07;;;;;;;12.25;11.05;;;4.20;76.40;;;;;;5072852;28;20243;-55
2022/04/11 00:41:34;;;;;;;12.57;11.27;;;4.20;76.50;;;;;;5072853;28;20207;-56
2022/04/11 00:44:02;;;;;;;12.05;11.05;;;4.10;76.60;;;;;;5071376;28;20283;-55
2022/04/11 00:46:29;;;;;;;12.02;11.02;;;4.10;76.00;;;;;;5072397;28;20247;-55
2022/04/11 00:48:56;;;;;;;12.38;11.07;;;4.10;76.60;;;;;;5072609;28;20233;-55
2022/04/11 00:51:26;;;;;;;11.82;10.82;;;4.10;76.20;;;;;;5072631;28;20218;-55
2022/04/11 00:53:55;;;;;;;11.20;10.30;;;4.10;76.00;;;;;;5072691;28;20204;-55
2022/04/11 00:56:22;;;;;;;11.35;10.45;;;4.10;76.70;;;;;;5072617;28;20635;-56
2022/04/11 00:58:50;;;;;;;12.20;11.00;;;4.10;76.20;;;;;;5071201;28;20215;-55
2022/04/11 01:01:18;;;;;;;11.20;10.40;;;4.20;75.80;;;;;;5072440;28;20659;-55
2022/04/11 01:03:45;;;;;;;11.50;10.35;;;4.20;76.20;;;;;;5072595;28;20678;-55
2022/04/11 01:06:11;;;;;;;11.65;10.57;;;4.20;75.90;;;;;;5072748;28;20603;-55
2022/04/11 01:08:39;;;;;;;11.35;10.45;;;4.20;75.70;;;;;;5076368;28;20270;-55
2022/04/11 01:11:07;;;;;;;12.93;11.45;;;4.20;75.80;;;;;;5076609;28;20196;-55
2022/04/11 01:13:34;;;;;;;11.48;10.38;;;4.20;75.60;;;;;;5075061;28;20550;-55
2022/04/11 01:16:03;;;;;;;11.57;10.50;;;4.20;75.10;;;;;;5076505;28;20568;-55
2022/04/11 01:18:33;;;;;;;11.50;10.60;;;4.30;74.90;;;;;;5076397;28;20196;-55
2022/04/11 01:21:00;;;;;;;11.77;10.80;;;4.30;74.90;;;;;;5076243;28;20208;-55
2022/04/11 01:23:28;;;;;;;11.52;10.55;;;4.20;75.50;;;;;;5076315;28;20291;-55
2022/04/11 01:28:08;;;;;;;12.80;11.00;;;4.10;75.70;;;;;;5089060;28;20594;-56
2022/04/11 01:30:35;;;;;;;12.85;11.65;;;4.10;76.20;;;;;;5090346;28;20200;-55
2022/04/11 01:33:01;;;;;;;11.30;10.30;;;4.00;76.70;;;;;;5090347;28;20647;-56
2022/04/11 01:35:28;;;;;;;16.15;11.55;;;4.00;76.70;;;;;;5090314;28;20214;-55
2022/04/11 01:37:57;;;;;;;11.88;10.88;;;3.90;77.20;;;;;;5090414;28;20214;-56
2022/04/11 01:40:24;;;;;;;13.23;11.82;;;3.90;77.40;;;;;;5090227;28;20208;-56
2022/04/11 01:42:51;;;;;;;11.77;10.63;;;3.90;77.50;;;;;;5088722;28;20295;-55
2022/04/11 01:45:19;;;;;;;13.23;11.85;;;3.80;77.40;;;;;;5089958;28;20228;-56
2022/04/11 01:47:47;;;;;;;12.55;11.45;;;3.80;78.00;;;;;;5089815;28;20231;-56
2022/04/11 01:50:14;;;;;;;12.70;11.48;;;3.80;77.70;;;;;;5089936;28;20691;-56
2022/04/11 01:52:41;;;;;;;12.02;10.93;;;3.90;77.60;;;;;;5089995;28;20200;-56
2022/04/11 01:55:08;;;;;;;14.48;11.35;;;3.90;77.40;;;;;;5089995;28;20561;-56
2022/04/11 01:57:35;;;;;;;12.00;11.07;;;4.00;77.20;;;;;;5088476;28;20212;-56
2022/04/11 02:00:02;;;;;;;12.07;10.95;;;4.10;77.00;;;;;;5089663;28;20232;-56
2022/04/11 02:02:30;;;;;;;12.05;11.05;;;4.10;76.90;;;;;;5089814;28;20204;-56
2022/04/11 02:04:58;;;;;;;12.50;11.50;;;4.10;77.00;;;;;;5089840;28;20228;-56
2022/04/11 02:07:25;;;;;;;13.80;12.40;;;4.20;76.80;;;;;;5089634;28;20394;-56
2022/04/11 02:09:52;;;;;;;12.70;11.45;;;4.20;76.50;;;;;;5089788;28;20225;-56
2022/04/11 02:12:19;;;;;;;13.02;11.82;;;4.10;77.00;;;;;;5088293;28;20243;-56
2022/04/11 02:14:45;;;;;;;13.07;11.80;;;4.20;76.30;;;;;;5089317;28;20239;-56
2022/04/11 02:17:12;;;;;;;12.25;11.15;;;4.20;76.30;;;;;;5089583;28;20201;-56
2022/04/11 02:19:40;;;;;;;12.60;11.50;;;4.10;76.60;;;;;;5089466;28;20286;-56
2022/04/11 02:22:07;;;;;;;12.80;11.65;;;4.10;77.20;;;;;;5089380;28;20208;-56
2022/04/11 02:24:35;;;;;;;12.88;11.60;;;4.00;77.20;;;;;;5089274;28;20251;-56
2022/04/11 02:27:02;;;;;;;12.68;11.50;;;4.00;77.90;;;;;;5089022;28;20240;-56
2022/04/11 02:29:29;;;;;;;14.85;11.35;;;4.00;77.70;;;;;;5087905;28;20204;-56
2022/04/11 02:31:56;;;;;;;12.10;10.90;;;4.00;77.60;;;;;;5089178;28;20646;-56
2022/04/11 02:34:25;;;;;;;12.68;11.48;;;4.00;77.20;;;;;;5089220;28;20207;-56
2022/04/11 02:36:53;;;;;;;11.40;10.50;;;4.00;77.10;;;;;;5089121;28;20507;-56
2022/04/11 02:39:20;;;;;;;11.27;10.38;;;4.00;77.20;;;;;;5076222;28;20652;-56
2022/04/11 02:41:47;;;;;;;12.77;11.68;;;4.00;77.30;;;;;;5075632;28;20200;-56
2022/04/11 02:44:15;;;;;;;11.70;10.70;;;3.90;77.60;;;;;;5074112;28;20288;-56
2022/04/11 02:46:42;;;;;;;13.65;12.40;;;4.00;77.80;;;;;;5075298;28;20239;-56
2022/04/11 02:49:09;;;;;;;10.20;9.30;;;4.10;77.60;;;;;;5075354;28;20224;-56
2022/04/11 02:51:36;;;;;;;12.13;11.13;;;4.10;77.30;;;;;;5075322;28;20208;-56
2022/04/11 02:54:07;;;;;;;11.77;10.68;;;4.10;77.40;;;;;;5075273;28;20283;-56
2022/04/11 02:56:34;;;;;;;11.38;10.25;;;4.20;77.70;;;;;;5075288;28;20212;-56
2022/04/11 02:59:01;;;;;;;12.75;11.60;;;4.30;77.30;;;;;;5073883;28;20201;-56
2022/04/11 03:01:27;;;;;;;10.82;9.93;;;4.30;77.10;;;;;;5075225;28;20630;-56
2022/04/11 03:03:54;;;;;;;11.57;10.55;;;4.50;76.60;;;;;;5075120;28;20296;-56
2022/04/11 03:06:21;;;;;;;12.65;11.32;;;4.50;76.40;;;;;;5074929;28;20283;-56
2022/04/11 03:08:48;;;;;;;13.27;12.10;;;4.60;76.10;;;;;;5075106;28;20573;-56
2022/04/11 03:11:16;;;;;;;10.85;9.90;;;4.60;75.80;;;;;;5074977;28;20239;-56
2022/04/11 03:13:43;;;;;;;10.98;10.02;;;4.60;75.60;;;;;;5073506;28;20204;-56
2022/04/11 03:16:10;;;;;;;13.10;11.75;;;4.70;75.30;;;;;;5074901;28;20207;-56
2022/04/11 03:18:37;;;;;;;12.02;11.02;;;4.70;75.30;;;;;;5074817;28;20217;-56
2022/04/11 03:21:04;;;;;;;11.30;10.30;;;4.80;75.10;;;;;;5074606;28;20232;-56
2022/04/11 03:23:31;;;;;;;11.38;10.48;;;4.80;74.60;;;;;;5074685;28;20660;-56
2022/04/11 03:25:57;;;;;;;11.18;10.23;;;4.80;74.60;;;;;;5074588;28;20205;-56
2022/04/11 03:28:26;;;;;;;11.60;10.68;;;4.80;74.90;;;;;;5073421;28;20239;-56
2022/04/11 03:30:53;;;;;;;11.90;10.55;;;4.80;74.70;;;;;;5074673;28;20236;-56
2022/04/11 03:33:19;;;;;;;11.02;10.02;;;4.80;74.70;;;;;;5074511;28;20279;-56
2022/04/11 03:35:46;;;;;;;11.13;10.23;;;4.70;74.60;;;;;;5074423;28;20207;-56
2022/04/11 03:38:13;;;;;;;12.40;11.45;;;4.80;74.60;;;;;;5074478;28;20211;-55
2022/04/11 03:40:40;;;;;;;11.57;10.55;;;4.70;74.60;;;;;;5074469;28;20235;-54
2022/04/11 03:43:07;;;;;;;9.98;9.07;;;4.80;74.50;;;;;;5073109;28;20664;-55
2022/04/11 03:45:35;;;;;;;11.50;10.50;;;4.90;74.20;;;;;;5074159;28;20236;-54
2022/04/11 03:48:02;;;;;;;11.60;10.60;;;4.90;74.20;;;;;;5073955;28;20353;-55
2022/04/11 03:50:29;;;;;;;12.25;10.48;;;5.00;74.00;;;;;;5073183;28;20200;-54
2022/04/11 03:52:56;;;;;;;11.70;10.60;;;5.00;74.00;;;;;;5074252;28;20295;-54
2022/04/11 03:55:23;;;;;;;11.48;10.48;;;5.00;74.00;;;;;;5074163;28;20201;-55
2022/04/11 03:57:50;;;;;;;10.50;9.60;;;5.00;74.00;;;;;;5072880;28;20686;-54
2022/04/11 04:00:17;;;;;;;11.93;10.82;;;4.90;74.10;;;;;;5073841;28;20297;-54
2022/04/11 04:02:46;;;;;;;12.40;11.30;;;4.90;74.20;;;;;;5073779;28;20682;-54
2022/04/11 04:05:13;;;;;;;11.30;10.10;;;4.90;74.00;;;;;;5074002;28;20228;-54
2022/04/11 04:07:39;;;;;;;11.32;10.45;;;4.90;74.00;;;;;;5073771;28;20228;-54
2022/04/11 04:10:07;;;;;;;15.35;10.43;;;4.90;74.00;;;;;;5073861;28;20197;-56
2022/04/11 04:12:34;;;;;;;11.85;10.63;;;5.00;74.00;;;;;;5072501;28;20763;-54
2022/04/11 04:15:02;;;;;;;11.82;10.48;;;5.00;73.90;;;;;;5073538;28;20197;-54
2022/04/11 04:17:28;;;;;;;12.00;10.77;;;5.10;73.80;;;;;;5073695;28;20204;-55
2022/04/11 04:19:57;;;;;;;10.32;9.38;;;5.10;73.70;;;;;;5073654;28;20300;-55
2022/04/11 04:22:23;;;;;;;10.95;10.00;;;5.10;73.60;;;;;;5073677;28;20291;-55
2022/04/11 04:24:50;;;;;;;11.65;10.23;;;5.10;73.50;;;;;;5073619;28;20201;-55
2022/04/11 04:27:17;;;;;;;11.30;10.38;;;5.10;73.50;;;;;;5072090;28;20237;-55
2022/04/11 04:29:44;;;;;;;11.20;9.85;;;5.10;73.50;;;;;;5073124;28;20663;-55
2022/04/11 04:32:11;;;;;;;10.68;9.60;;;5.10;73.60;;;;;;5073536;28;20209;-55
2022/04/11 04:34:38;;;;;;;9.57;8.63;;;5.10;73.50;;;;;;5073386;28;20288;-55
2022/04/11 04:37:06;;;;;;;10.93;9.95;;;5.10;73.30;;;;;;5073305;28;20205;-55
2022/04/11 04:39:33;;;;;;;10.52;9.63;;;5.10;73.10;;;;;;5073162;28;20197;-55
2022/04/11 04:42:00;;;;;;;11.73;10.63;;;5.10;73.20;;;;;;5073246;28;20240;-55
2022/04/11 04:44:26;;;;;;;9.40;8.50;;;5.10;73.20;;;;;;5071699;28;20209;-55
2022/04/11 04:46:53;;;;;;;11.30;10.07;;;5.10;73.20;;;;;;5072988;28;20271;-55
2022/04/11 04:49:20;;;;;;;11.80;10.80;;;5.10;73.10;;;;;;5073088;28;20323;-55
2022/04/11 04:51:47;;;;;;;11.20;10.20;;;5.10;73.10;;;;;;5072871;28;20296;-55
2022/04/11 04:54:15;;;;;;;11.88;10.88;;;5.10;72.90;;;;;;5073071;28;20232;-55
2022/04/11 04:56:42;;;;;;;13.18;10.80;;;5.10;72.90;;;;;;5072928;28;20243;-55
2022/04/11 04:59:09;;;;;;;11.77;10.77;;;5.10;73.10;;;;;;5071477;28;20566;-55
2022/04/11 05:01:35;;;;;;;11.25;10.35;;;5.10;73.00;;;;;;5072645;28;20295;-55
2022/04/11 05:04:02;;;;;;;12.18;11.18;;;5.10;73.00;;;;;;5072978;28;20197;-55
2022/04/11 05:06:29;;;;;;;12.60;11.40;;;5.10;73.00;;;;;;5072919;28;20240;-55
2022/04/11 05:08:56;;;;;;;12.85;11.75;;;5.00;72.10;;;;;;5072867;28;20227;-55
2022/04/11 05:11:25;;;;;;;11.25;10.35;;;4.80;72.50;;;;;;5072729;28;20635;-55
2022/04/11 05:13:51;;;;;;;11.43;10.50;;;4.80;72.80;;;;;;5071195;28;20466;-55
2022/04/11 05:16:19;;;;;;;11.05;10.07;;;4.80;72.90;;;;;;5072877;28;20200;-55
2022/04/11 05:18:46;;;;;;;13.27;12.27;;;4.70;72.90;;;;;;5072841;28;20201;-55
2022/04/11 05:21:13;;;;;;;11.48;10.35;;;4.60;73.30;;;;;;5072589;28;20205;-55
2022/04/11 05:23:41;;;;;;;13.88;12.57;;;4.60;73.60;;;;;;5072651;28;20303;-55
2022/04/11 05:26:08;;;;;;;12.50;11.38;;;4.60;74.00;;;;;;5072540;28;20256;-56
2022/04/11 05:28:36;;;;;;;13.90;12.65;;;4.50;73.80;;;;;;5071326;28;20228;-55
2022/04/11 05:31:03;;;;;;;12.77;11.68;;;4.50;74.00;;;;;;5072274;28;21013;-55
2022/04/11 05:33:30;;;;;;;12.25;11.05;;;4.50;74.30;;;;;;5072538;28;20200;-55
2022/04/11 05:35:57;;;;;;;13.10;12.10;;;4.60;74.40;;;;;;5072501;28;20652;-55
2022/04/11 05:38:24;;;;;;;14.07;12.77;;;4.60;74.20;;;;;;5072516;28;20540;-55
2022/04/11 05:40:51;;;;;;;12.65;11.55;;;4.60;74.30;;;;;;5072509;28;20205;-55
2022/04/11 05:43:18;;;;;;;13.00;11.90;;;4.60;74.40;;;;;;5071179;28;20201;-55
2022/04/11 05:45:47;;;;;;;13.25;12.23;;;4.50;74.40;;;;;;5072445;28;20240;-55
2022/04/11 05:48:13;;;;;;;14.95;13.55;;;4.50;74.50;;;;;;5072270;28;20323;-56
2022/04/11 05:50:41;;;;;;;14.30;12.90;;;4.60;74.60;;;;;;5072274;28;20209;-55
2022/04/11 05:53:07;;;;;;;12.57;11.48;;;4.70;74.60;;;;;;5072275;28;20201;-55
2022/04/11 05:55:34;;;;;;;12.50;11.40;;;4.80;74.40;;;;;;5072327;28;20296;-55
2022/04/11 05:58:01;;;;;;;12.45;11.45;;;4.90;74.20;;;;;;5071079;28;20207;-55
2022/04/11 06:00:28;;;;;;;12.50;11.32;;;5.00;73.90;;;;;;5072225;28;20313;-55
2022/04/11 06:02:56;;;;;;;12.73;11.73;;;5.10;73.80;;;;;;5072255;28;20565;-55
2022/04/11 06:05:23;;;;;;;12.55;10.70;;;5.20;73.70;;;;;;5072281;28;20252;-55
2022/04/11 06:07:50;;;;;;;13.75;12.45;;;5.20;73.50;;;;;;5072072;28;20236;-55
2022/04/11 06:10:17;;;;;;;11.63;10.43;;;5.30;73.30;;;;;;5072325;28;20540;-55
2022/04/11 06:12:44;;;;;;;13.05;11.95;;;5.30;73.20;;;;;;5071202;28;20211;-55
2022/04/11 06:15:17;;;;;;;13.13;12.02;;;5.40;72.50;;;;;;5075859;28;20232;-55
2022/04/11 06:17:44;;;;;;;13.98;12.85;;;5.40;72.60;;;;;;5075996;28;20211;-55
2022/04/11 06:20:12;;;;;;;13.35;12.10;;;5.40;73.10;;;;;;5075805;28;20296;-55
2022/04/11 06:22:41;;;;;;;12.73;11.07;;;5.50;72.60;;;;;;5075845;28;20240;-55
2022/04/11 06:25:09;;;;;;;12.70;11.60;;;5.50;72.60;;;;;;5075750;28;20256;-55
2022/04/11 06:27:37;;;;;;;14.20;12.90;;;5.60;72.60;;;;;;5074135;28;20241;-55
2022/04/11 06:30:05;;;;;;;13.48;12.32;;;5.70;72.30;;;;;;5075553;28;20201;-55
2022/04/11 06:32:33;;;;;;;12.48;11.40;;;5.70;72.10;;;;;;5075609;28;20542;-55
2022/04/11 06:35:01;;;;;;;12.52;11.55;;;5.80;72.20;;;;;;5075449;28;20213;-55
2022/04/11 06:37:29;;;;;;;13.07;11.77;;;5.80;72.30;;;;;;5075507;28;20759;-55
2022/04/11 06:39:58;;;;;;;12.25;11.15;;;5.90;72.20;;;;;;5075547;28;20197;-55
2022/04/11 06:42:24;;;;;;;14.48;13.00;;;6.00;72.00;;;;;;5074056;28;20213;-55
2022/04/11 06:44:51;;;;;;;11.93;10.82;;;6.10;71.80;;;;;;5075347;28;20201;-56
2022/04/11 06:47:21;;;;;;;13.68;12.57;;;6.10;70.70;;;;;;5075207;28;20239;-56
2022/04/11 06:49:48;;;;;;;13.52;12.30;;;6.10;70.20;;;;;;5075293;28;20679;-56
2022/04/11 06:52:15;;;;;;;12.13;11.02;;;6.10;70.50;;;;;;5075324;28;20215;-56
2022/04/11 06:54:44;;;;;;;12.55;11.45;;;6.10;70.10;;;;;;5075256;28;20211;-56
2022/04/11 06:57:12;;;;;;;13.05;11.82;;;6.20;70.80;;;;;;5075027;28;20247;-55
2022/04/11 06:59:39;;;;;;;10.20;9.40;;;6.30;70.90;;;;;;5074373;28;20215;-55
2022/04/11 07:02:06;;;;;;;12.70;11.75;;;6.40;70.90;;;;;;5075043;28;20236;-55
2022/04/11 07:04:32;;;;;;;12.93;11.93;;;6.50;70.70;;;;;;5075059;28;20205;-55
2022/04/11 07:06:59;;;;;;;12.35;11.18;;;6.60;70.70;;;;;;5075218;28;20223;-56
2022/04/11 07:09:27;;;;;;;12.80;11.60;;;6.60;70.20;;;;;;5074862;28;20582;-55
2022/04/11 07:11:56;;;;;;;12.85;11.65;;;6.70;70.30;;;;;;5075021;28;20323;-55
2022/04/11 07:14:23;;;;;;;13.10;11.93;;;6.80;69.80;;;;;;5073466;28;20258;-56
2022/04/11 07:16:52;;;;;;;13.18;12.02;;;6.80;69.50;;;;;;5074970;28;20216;-55
2022/04/11 07:19:19;;;;;;;11.77;10.80;;;6.80;69.00;;;;;;5074728;28;20723;-55
2022/04/11 07:21:46;;;;;;;13.38;12.23;;;6.80;68.40;;;;;;5074677;28;20204;-56
2022/04/11 07:24:12;;;;;;;12.27;11.02;;;6.80;68.40;;;;;;5074770;28;20232;-56
2022/04/11 07:26:40;;;;;;;12.75;11.75;;;6.90;68.50;;;;;;5074689;28;20316;-56
2022/04/11 07:29:09;;;;;;;10.82;10.02;;;6.90;67.70;;;;;;5073091;28;20239;-55
2022/04/11 07:31:36;;;;;;;11.85;11.05;;;7.00;69.20;;;;;;5074434;28;20755;-55
2022/04/11 07:34:03;;;;;;;11.25;10.45;;;7.20;69.10;;;;;;5074507;28;20232;-55
2022/04/11 07:36:30;;;;;;;12.90;12.00;;;7.30;69.30;;;;;;5074534;28;20204;-55
2022/04/11 07:38:57;;;;;;;11.82;10.82;;;7.30;67.30;;;;;;5074417;28;20623;-55
2022/04/11 07:41:24;;;;;;;10.23;9.43;;;7.40;68.20;;;;;;5074389;28;20208;-55
2022/04/11 07:43:53;;;;;;;13.07;12.10;;;7.50;68.30;;;;;;5073082;28;20207;-55
2022/04/11 07:46:21;;;;;;;11.63;10.93;;;7.60;67.60;;;;;;5074043;28;20221;-55
2022/04/11 07:48:48;;;;;;;11.80;11.00;;;7.60;66.00;;;;;;5074067;28;20221;-55
2022/04/11 07:51:15;;;;;;;13.27;12.38;;;7.60;65.50;;;;;;5074244;28;20290;-55
2022/04/11 07:53:42;;;;;;;12.15;11.38;;;7.70;65.90;;;;;;5074114;28;20231;-55
2022/04/11 07:56:09;;;;;;;12.05;11.25;;;7.80;66.10;;;;;;5073989;28;20304;-55
2022/04/11 07:58:36;;;;;;;9.50;8.82;;;7.90;66.60;;;;;;5072665;28;20292;-55
2022/04/11 08:01:02;;;;;;;12.23;11.18;;;8.10;67.60;;;;;;5073766;28;20628;-55
2022/04/11 08:03:31;;;;;;;11.93;11.13;;;8.10;66.20;;;;;;5073931;28;20667;-55
2022/04/11 08:05:57;;;;;;;12.88;11.98;;;8.10;65.10;;;;;;5073839;28;20280;-55
2022/04/11 08:08:24;;;;;;;11.65;10.95;;;8.10;65.60;;;;;;5073669;28;20234;-55
2022/04/11 08:10:51;;;;;;;13.23;12.10;;;8.20;65.10;;;;;;5073744;28;20240;-55
2022/04/11 08:13:18;;;;;;;12.63;11.63;;;8.30;64.80;;;;;;5072546;28;20209;-55
2022/04/11 08:15:45;;;;;;;13.18;11.77;;;8.40;65.00;;;;;;5073598;28;20291;-55
2022/04/11 08:18:12;;;;;;;13.13;11.88;;;8.40;65.50;;;;;;5073715;28;20254;-55
2022/04/11 08:20:40;;;;;;;10.48;9.57;;;8.50;65.50;;;;;;5073446;28;20284;-55
2022/04/11 08:23:07;;;;;;;11.88;11.00;;;8.50;65.50;;;;;;5073557;28;20711;-55
2022/04/11 08:25:34;;;;;;;12.05;11.25;;;8.70;66.10;;;;;;5073260;28;20724;-55
2022/04/11 08:28:01;;;;;;;12.73;11.70;;;8.70;66.00;;;;;;5071767;28;20239;-55
2022/04/11 08:30:28;;;;;;;12.10;11.20;;;8.90;65.20;;;;;;5073260;28;20232;-55
2022/04/11 08:32:56;;;;;;;12.10;11.25;;;9.00;65.40;;;;;;5073550;28;20812;-55
2022/04/11 08:35:23;;;;;;;12.13;11.02;;;9.10;65.00;;;;;;5073030;28;20212;-55
2022/04/11 08:37:51;;;;;;;12.85;11.85;;;9.10;64.50;;;;;;5073165;28;20379;-55
2022/04/11 08:40:20;;;;;;;13.23;12.05;;;9.20;64.20;;;;;;5073188;28;20204;-55
2022/04/11 08:42:48;;;;;;;10.90;10.10;;;9.30;64.50;;;;;;5071877;28;20648;-55
2022/04/11 08:45:17;;;;;;;11.27;10.52;;;9.40;64.70;;;;;;5072912;28;20221;-55
2022/04/11 08:47:44;;;;;;;13.38;12.20;;;9.50;64.30;;;;;;5073214;28;20203;-55
2022/04/11 08:50:12;;;;;;;13.35;12.40;;;9.60;63.00;;;;;;5073045;28;20239;-55
2022/04/11 08:52:40;;;;;;;11.95;11.27;;;9.80;63.00;;;;;;5072911;28;20205;-55
2022/04/11 08:55:10;;;;;;;13.15;12.35;;;9.80;61.90;;;;;;5072945;28;20211;-55
2022/04/11 08:57:37;;;;;;;13.02;12.10;;;9.80;61.90;;;;;;5071753;28;20291;-55
2022/04/11 09:00:07;;;;;;;11.45;10.75;;;9.80;61.90;;;;;;5072750;28;20200;-55
2022/04/11 09:02:34;;;;;;;11.52;10.82;;;9.70;58.30;;;;;;5072850;28;20656;-55
2022/04/11 09:05:02;;;;;;;13.27;12.32;;;9.70;59.80;;;;;;5072851;28;20577;-55
2022/04/11 09:07:44;;;;;;;13.40;12.43;;;9.80;59.40;;;;;;5072858;28;20537;-55
2022/04/11 09:10:12;;;;;;;10.43;9.63;;;9.90;60.40;;;;;;5072711;28;20781;-55
2022/04/11 09:12:47;;;;;;;11.88;11.18;;;10.00;60.60;;;;;;5071495;28;20228;-55
2022/04/11 09:15:14;;;;;;;12.65;11.85;;;10.20;61.10;;;;;;5072684;28;20200;-55
2022/04/11 09:17:41;;;;;;;11.48;10.77;;;10.30;60.20;;;;;;5072517;28;20236;-55
2022/04/11 09:20:11;;;;;;;10.05;9.35;;;10.40;61.40;;;;;;5072605;28;20230;-55
2022/04/11 09:22:38;;;;;;;12.93;12.05;;;10.60;60.20;;;;;;5072738;28;20646;-55
2022/04/11 09:25:13;;;;;;;9.20;8.35;;;10.70;59.80;;;;;;5072666;28;20287;-55
2022/04/11 09:27:41;;;;;;;12.02;11.23;;;10.90;59.60;;;;;;5071272;28;20228;-55
2022/04/11 09:30:20;;;;;;;9.25;8.65;;;10.80;57.70;;;;;;5072303;28;20229;-55
2022/04/11 09:33:00;;;;;;;10.57;9.88;;;10.90;56.80;;;;;;5072655;28;20201;-55
2022/04/11 09:35:29;;;;;;;11.75;11.05;;;10.80;53.10;;;;;;5072685;28;20200;-55
2022/04/11 09:38:14;;;;;;;11.73;10.95;;;10.80;53.00;;;;;;5072825;28;20290;-56
2022/04/11 09:40:45;;;;;;;11.60;10.82;;;10.70;52.80;;;;;;5072384;28;20634;-55
2022/04/11 09:43:13;;;;;;;10.63;9.93;;;10.80;55.40;;;;;;5071280;28;20597;-55
2022/04/11 09:45:42;;;;;;;11.23;10.50;;;11.00;54.30;;;;;;5072298;28;20327;-55
2022/04/11 09:48:09;;;;;;;8.55;8.05;;;11.10;54.60;;;;;;5073486;28;20201;-55
2022/04/11 09:50:36;;;;;;;10.50;9.90;;;11.40;55.20;;;;;;5076269;28;20239;-56
2022/04/11 09:53:11;;;;;;;12.02;11.43;;;11.60;55.00;;;;;;5076407;28;20207;-55
2022/04/11 09:55:39;;;;;;;10.50;9.80;;;11.70;53.10;;;;;;5076573;28;20306;-56
2022/04/11 09:58:08;;;;;;;12.20;11.50;;;11.80;55.00;;;;;;5075058;28;20207;-55
2022/04/11 10:00:36;;;;;;;12.10;11.40;;;11.90;53.30;;;;;;5076248;28;20201;-55
2022/04/11 10:03:05;;;;;;;10.23;9.63;;;12.00;52.60;;;;;;5076318;28;20303;-55
2022/04/11 10:05:33;;;;;;;11.55;10.90;;;12.10;53.90;;;;;;5076288;28;20196;-56
2022/04/11 10:08:01;;;;;;;10.27;9.63;;;12.30;53.70;;;;;;5076163;28;20201;-55
2022/04/11 10:10:28;;;;;;;9.40;8.50;;;12.40;53.40;;;;;;5076103;28;20229;-55
2022/04/11 10:12:57;;;;;;;11.63;10.65;;;12.50;53.30;;;;;;5074978;28;20228;-56
2022/04/11 10:15:25;;;;;;;11.65;11.05;;;12.50;52.90;;;;;;5075908;28;20226;-55
2022/04/11 10:17:54;;;;;;;11.65;10.95;;;12.60;52.30;;;;;;5075933;28;20262;-55
2022/04/11 10:20:26;;;;;;;10.75;10.23;;;12.70;52.50;;;;;;5075694;28;20213;-56
2022/04/11 10:22:58;;;;;;;11.90;11.20;;;12.80;53.30;;;;;;5075868;28;20212;-55
2022/04/11 10:25:25;;;;;;;11.10;10.50;;;13.00;52.40;;;;;;5075900;28;20812;-56
2022/04/11 10:28:18;;;;;;;11.00;10.20;;;12.90;50.20;;;;;;5074283;28;20239;-55
2022/04/11 10:31:03;;;;;;;12.07;11.27;;;12.90;51.10;;;;;;5075432;28;20228;-56
2022/04/11 10:33:46;;;;;;;11.60;10.77;;;13.00;51.30;;;;;;5075631;28;20205;-55
2022/04/11 10:36:30;;;;;;;12.30;11.70;;;13.20;50.30;;;;;;5074196;28;20234;-55
2022/04/11 10:39:24;;;;;;;11.85;10.85;;;13.30;51.60;;;;;;5075542;28;20246;-55
2022/04/11 10:42:15;;;;;;;11.10;10.38;;;13.40;51.70;;;;;;5075404;28;20201;-55
2022/04/11 10:44:43;;;;;;;11.77;11.18;;;13.30;48.30;;;;;;5074948;28;20604;-56
2022/04/11 10:47:31;;;;;;;10.05;9.45;;;13.40;50.30;;;;;;5075232;28;20292;-55
2022/04/11 10:50:24;;;;;;;9.00;8.35;;;13.60;50.00;;;;;;5075298;28;20268;-55
2022/04/11 10:53:10;;;;;;;11.38;10.77;;;13.80;49.50;;;;;;5075125;28;20236;-55
2022/04/11 10:55:37;;;;;;;11.75;11.05;;;13.90;49.20;;;;;;5075237;28;20279;-55
2022/04/11 10:58:05;;;;;;;11.02;10.30;;;14.10;50.10;;;;;;5073882;28;20292;-56
2022/04/11 11:00:33;;;;;;;10.90;10.30;;;14.20;49.80;;;;;;5074608;28;20291;-56
2022/04/11 11:03:13;;;;;;;10.88;10.38;;;14.40;48.60;;;;;;5075142;28;20223;-56
2022/04/11 11:05:43;;;;;;;11.52;10.77;;;14.60;48.70;;;;;;5075256;28;20200;-56
2022/04/11 11:08:33;;;;;;;11.23;10.63;;;14.80;47.60;;;;;;5075078;28;20250;-55
2022/04/11 11:11:02;;;;;;;11.30;10.70;;;14.90;47.10;;;;;;5074931;28;20239;-56
2022/04/11 11:13:38;;;;;;;11.63;10.83;;;14.90;45.90;;;;;;5073771;28;20211;-56
2022/04/11 11:16:41;;;;;;;9.80;9.30;;;14.90;48.00;;;;;;5074932;28;20449;-56
2022/04/11 11:19:17;;;;;;;11.00;10.40;;;15.20;48.20;;;;;;5069837;28;20450;-56
2022/04/11 11:22:02;;;;;;;9.47;8.87;;;16.20;46.30;;;;;;5074818;28;20987;-56
2022/04/11 11:24:29;;;;;;;11.10;10.50;;;17.60;42.70;;;;;;5074775;28;20462;-56
2022/04/11 11:26:59;;;;;;;11.00;10.40;;;18.70;41.50;;;;;;5074529;28;20486;-57
2022/04/11 11:29:28;;;;;;;11.90;11.20;;;19.80;38.50;;;;;;5073317;28;20483;-56
2022/04/11 11:31:57;;;;;;;9.90;9.40;;;20.50;39.00;;;;;;5074452;28;20453;-56
2022/04/11 11:34:27;;;;;;;10.00;9.40;;;21.10;35.60;;;;;;5074483;28;20447;-57
2022/04/11 11:36:59;;;;;;;10.90;10.20;;;21.20;36.70;;;;;;5074443;28;20466;-56
2022/04/11 11:39:27;;;;;;;11.13;10.47;;;21.40;35.50;;;;;;5074389;28;20450;-54
2022/04/11 11:41:55;;;;;;;12.00;11.33;;;21.50;35.70;;;;;;5074432;28;20443;-55
2022/04/11 11:44:22;;;;;;;9.97;9.37;;;21.30;36.80;;;;;;5073012;28;20485;-55
2022/04/11 11:46:50;;;;;;;12.23;11.60;;;20.80;36.20;;;;;;5074172;28;20929;-54
2022/04/11 11:49:17;;;;;;;11.47;10.87;;;20.70;36.30;;;;;;5073979;28;20529;-55
2022/04/11 11:51:45;;;;;;;10.30;9.80;;;20.50;38.50;;;;;;5074212;28;20955;-55
2022/04/11 11:54:13;;;;;;;11.60;11.00;;;20.60;37.70;;;;;;5073960;28;20443;-55
2022/04/11 11:56:41;;;;;;;11.00;10.50;;;20.80;34.80;;;;;;5074187;28;20538;-55
2022/04/11 11:59:08;;;;;;;10.27;9.70;;;20.80;34.70;;;;;;5072797;28;20961;-55
2022/04/11 12:01:35;;;;;;;10.80;10.23;;;20.60;36.10;;;;;;5074020;28;20486;-54
2022/04/11 12:04:19;;;;;;;12.90;12.10;;;20.40;35.50;;;;;;5074024;28;20700;-55
2022/04/11 12:06:53;;;;;;;12.47;11.77;;;20.00;36.80;;;;;;5073826;28;20450;-54
2022/04/11 12:09:20;;;;;;;9.73;9.23;;;20.00;38.40;;;;;;5073796;28;20797;-54
2022/04/11 12:11:47;;;;;;;12.03;11.43;;;19.70;37.80;;;;;;5073105;28;20808;-55
2022/04/11 12:14:14;;;;;;;11.87;11.17;;;19.60;35.60;;;;;;5072321;28;20446;-55
2022/04/11 12:16:57;;;;;;;11.00;10.50;;;19.40;35.90;;;;;;5073658;28;20439;-54
2022/04/11 12:19:34;;;;;;;11.33;10.70;;;19.30;34.70;;;;;;5073586;28;20443;-55
2022/04/11 12:22:13;;;;;;;10.50;10.00;;;19.40;37.60;;;;;;5073516;28;20991;-54
2022/04/11 12:24:41;;;;;;;11.97;11.27;;;19.30;36.70;;;;;;5073525;28;20443;-55
2022/04/11 12:27:14;;;;;;;11.70;11.10;;;18.90;38.10;;;;;;5073474;28;20501;-56
2022/04/11 12:29:42;;;;;;;10.63;9.83;;;18.90;37.70;;;;;;5072388;28;20982;-55
2022/04/11 12:32:13;;;;;;;10.33;9.83;;;19.10;37.90;;;;;;5073286;28;20478;-56
2022/04/11 12:34:42;;;;;;;11.60;10.87;;;19.30;38.90;;;;;;5073409;28;20541;-56
2022/04/11 12:37:13;;;;;;;11.47;10.90;;;19.30;38.20;;;;;;5073304;28;20991;-56
2022/04/11 12:39:54;;;;;;;10.33;9.83;;;19.40;37.20;;;;;;5073313;28;20914;-55
2022/04/11 12:42:22;;;;;;;11.87;11.27;;;19.50;35.50;;;;;;5072126;28;20831;-56
2022/04/11 12:44:50;;;;;;;11.83;11.23;;;19.50;36.90;;;;;;5073206;28;20471;-55
2022/04/11 12:47:17;;;;;;;12.17;11.47;;;19.20;35.10;;;;;;5073070;28;20451;-55